This is the latest recevied weather packets stored in our database for station/object NR0Q. If no packets are shown the sender has not sent any weather packets the latest 10 day(s).
| Time | Temp. | Humidity | Pressure | Rain* | Wind** | Luminosity | Snow |
|---|---|---|---|---|---|---|---|
| 1777688101 | 13.33° C | 64% | 1018.6 hPa | 0 mm | - | - | - |
| 1777687201 | 13.89° C | 64% | 1018.6 hPa | 0 mm | - | - | - |
| 1777686301 | 13.89° C | 62% | 1018.6 hPa | 0 mm | - | - | - |
| 1777685402 | 15° C | 57% | 1018.6 hPa | 0 mm | - | - | - |
| 1777684502 | 16.11° C | 49% | 1018.6 hPa | 0 mm | - | - | - |
| 1777683601 | 17.22° C | 41% | 1017.6 hPa | 0 mm | - | - | - |
| 1777682701 | 17.78° C | 37% | 1018.6 hPa | 0 mm | - | - | - |
| 1777681801 | 18.33° C | 34% | 1017.6 hPa | 0 mm | - | - | - |
| 1777680901 | 18.89° C | 34% | 1017.6 hPa | 0 mm | - | - | - |
| 1777680001 | 18.89° C | 31% | 1017.6 hPa | 0 mm | - | - | - |
| 1777679101 | 19.44° C | 30% | 1017.6 hPa | 0 mm | - | - | - |
| 1777678201 | 19.44° C | 29% | 1017.6 hPa | 0 mm | - | - | - |
| 1777677301 | 19.44° C | 30% | 1017.6 hPa | 0 mm | - | - | - |
| 1777676401 | 19.44° C | 29% | 1017.6 hPa | 0 mm | - | - | - |
| 1777675501 | 19.44° C | 29% | 1017.6 hPa | 0 mm | - | - | - |
| 1777674602 | 20° C | 29% | 1017.6 hPa | 0 mm | - | - | - |
| 1777673701 | 20° C | 29% | 1017.6 hPa | 0 mm | - | - | - |
| 1777672801 | 20° C | 28% | 1017.6 hPa | 0 mm | - | - | - |
| 1777671901 | 20° C | 29% | 1017.6 hPa | 0 mm | - | - | - |
| 1777671001 | 20° C | 27% | 1017.6 hPa | 0 mm | - | - | - |
| 1777670101 | 20° C | 28% | 1017.6 hPa | 0 mm | - | - | - |
| 1777669201 | 20° C | 28% | 1017.6 hPa | 0 mm | - | - | - |
| 1777668301 | 20.56° C | 28% | 1018.6 hPa | 0 mm | - | - | - |
| 1777667401 | 20.56° C | 32% | 1018.6 hPa | 0 mm | - | - | - |
| 1777666501 | 20.56° C | 29% | 1018.6 hPa | 0 mm | - | - | - |
* Rain latest hour (hover to see other rain measurements)
** Current wind speed in m/s (hover to see current wind gust speed)